Lock Haven, PA (17745)

10:03 PM EST on February 11, 2016 (GMT -0500)
297 McElhattan Drive | | Change Station
CLOSE
Current Station
Personal Weather Station
Location: McElhattan, PA
Elevation: 568 ft
Nearby Weather Stations

Elev 568 ft 41.16 °N, 77.36 °W | Updated 14 minutes ago

Partly Cloudy
Partly Cloudy
14.0 °F
Feels Like 14 °F
N
2.0
Wind Variable Wind from South
Gusts 6.0 mph

Today
High -- | Low -- °F
--% Chance of Precip.
Yesterday
High -- | Low -- °F
Precip. -- in
Pressure 30.24 in
Visibility 9.0 miles
Clouds Few 4200 ft
Scattered Clouds 5000 ft
Windchill 14 °F
Dew Point 2 °F
Humidity 59%
Rainfall 0.00 in
Snow Depth Not available.
7:10 AM 5:38 PM
Waxing Crescent, 16% visible
METAR KIPT 120254Z 32012KT 9SM FEW042 SCT050 M09/M14 A3021 RMK AO2 SNE53 SLP238 P0000 60000 T10891139 51021 $
Pressure 30.24 in
Visibility 9.0 miles
Clouds Few 4200 ft
Scattered Clouds 5000 ft
Windchill 14 °F
Dew Point 2 °F
Humidity 59%
Rainfall 0.00 in
Snow Depth Not available.
7:10 AM 5:38 PM
Waxing Crescent, 16% visible
METAR KIPT 120254Z 32012KT 9SM FEW042 SCT050 M09/M14 A3021 RMK AO2 SNE53 SLP238 P0000 60000 T10891139 51021 $

10-Day Weather Forecast

Almanac

Astronomy

Feb. 11, 2016 Rise Set
Actual Time
Civil Twilight
Nautical Twilight
Astronomical Twilight
Moon
Length of Visible Light
Length of Day
Tomorrow will be .
, % of the Moon is Illuminated

Today's Extremes

State Highs State Lows

Community

WunderPhotos

Upload Photos

1,892,243 photos uploaded!

WunderBlog® & News

Nearby

Air Quality

  Air Quality AQ Index Pollutant
Not available.

Snow Depth

Station Depth Elevation

Earthquake Activity

City Distance Mag. Time & Date
Minimum magnitude displayed is 2.5.

Coastal Water Temperatures

Place Temperature

Stations

Nearby Weather Stations

Station Location Temp. Windchill Dew Point Humidity Wind Precip. Elev Updated Type
                   

Watches & Warnings

There are currently no watches in effect.